sensor_id;sensor_type;location;lat;lon;timestamp;P1;durP1;ratioP1;P2;durP2;ratioP2
6689;SDS011;3382;51.576;8.076;2023-02-15T00:01:26;12.13;;;8.47;;
6689;SDS011;3382;51.576;8.076;2023-02-15T00:03:52;12.07;;;9.07;;
6689;SDS011;3382;51.576;8.076;2023-02-15T00:06:18;11.60;;;9.03;;
6689;SDS011;3382;51.576;8.076;2023-02-15T00:08:44;14.07;;;10.23;;
6689;SDS011;3382;51.576;8.076;2023-02-15T00:11:10;12.63;;;9.90;;
6689;SDS011;3382;51.576;8.076;2023-02-15T00:13:38;17.43;;;11.60;;
6689;SDS011;3382;51.576;8.076;2023-02-15T00:16:07;18.47;;;11.87;;
6689;SDS011;3382;51.576;8.076;2023-02-15T00:18:34;20.03;;;13.67;;
6689;SDS011;3382;51.576;8.076;2023-02-15T00:21:07;17.67;;;11.90;;
6689;SDS011;3382;51.576;8.076;2023-02-15T00:23:34;21.30;;;13.43;;
6689;SDS011;3382;51.576;8.076;2023-02-15T00:26:07;25.27;;;16.70;;
6689;SDS011;3382;51.576;8.076;2023-02-15T00:28:37;20.87;;;14.33;;
6689;SDS011;3382;51.576;8.076;2023-02-15T00:31:06;21.57;;;13.70;;
6689;SDS011;3382;51.576;8.076;2023-02-15T00:33:33;17.97;;;13.03;;
6689;SDS011;3382;51.576;8.076;2023-02-15T00:36:00;17.23;;;12.97;;
6689;SDS011;3382;51.576;8.076;2023-02-15T00:38:26;20.73;;;14.43;;
6689;SDS011;3382;51.576;8.076;2023-02-15T00:40:56;19.73;;;12.87;;
6689;SDS011;3382;51.576;8.076;2023-02-15T00:43:22;21.50;;;12.53;;
6689;SDS011;3382;51.576;8.076;2023-02-15T00:45:48;18.10;;;13.17;;
6689;SDS011;3382;51.576;8.076;2023-02-15T00:48:14;16.00;;;11.63;;
6689;SDS011;3382;51.576;8.076;2023-02-15T00:50:40;14.63;;;10.17;;
6689;SDS011;3382;51.576;8.076;2023-02-15T00:53:06;17.00;;;11.70;;
6689;SDS011;3382;51.576;8.076;2023-02-15T00:55:31;17.67;;;11.13;;
6689;SDS011;3382;51.576;8.076;2023-02-15T00:57:57;16.13;;;10.90;;
6689;SDS011;3382;51.576;8.076;2023-02-15T01:00:23;15.83;;;10.83;;
6689;SDS011;3382;51.576;8.076;2023-02-15T01:02:48;15.50;;;10.93;;
6689;SDS011;3382;51.576;8.076;2023-02-15T01:05:14;14.40;;;10.87;;
6689;SDS011;3382;51.576;8.076;2023-02-15T01:07:39;16.43;;;11.50;;
6689;SDS011;3382;51.576;8.076;2023-02-15T01:10:06;17.07;;;11.87;;
6689;SDS011;3382;51.576;8.076;2023-02-15T01:12:32;14.87;;;11.27;;
6689;SDS011;3382;51.576;8.076;2023-02-15T01:14:58;16.40;;;11.40;;
6689;SDS011;3382;51.576;8.076;2023-02-15T01:17:23;15.80;;;11.20;;
6689;SDS011;3382;51.576;8.076;2023-02-15T01:19:49;16.97;;;11.40;;
6689;SDS011;3382;51.576;8.076;2023-02-15T01:22:16;15.43;;;10.73;;
6689;SDS011;3382;51.576;8.076;2023-02-15T01:24:42;16.90;;;11.10;;
6689;SDS011;3382;51.576;8.076;2023-02-15T01:27:07;17.00;;;12.03;;
6689;SDS011;3382;51.576;8.076;2023-02-15T01:29:33;15.43;;;11.23;;
6689;SDS011;3382;51.576;8.076;2023-02-15T01:31:59;17.80;;;11.57;;
6689;SDS011;3382;51.576;8.076;2023-02-15T01:34:24;18.90;;;11.30;;
6689;SDS011;3382;51.576;8.076;2023-02-15T01:36:50;13.50;;;10.80;;
6689;SDS011;3382;51.576;8.076;2023-02-15T01:39:15;16.40;;;10.30;;
6689;SDS011;3382;51.576;8.076;2023-02-15T01:41:41;13.10;;;10.03;;
6689;SDS011;3382;51.576;8.076;2023-02-15T01:47:10;16.00;;;11.23;;
6689;SDS011;3382;51.576;8.076;2023-02-15T01:49:39;15.93;;;11.27;;
6689;SDS011;3382;51.576;8.076;2023-02-15T01:52:06;17.27;;;10.97;;
6689;SDS011;3382;51.576;8.076;2023-02-15T01:54:34;16.20;;;11.53;;
6689;SDS011;3382;51.576;8.076;2023-02-15T01:57:04;16.07;;;10.93;;
6689;SDS011;3382;51.576;8.076;2023-02-15T01:59:34;14.30;;;10.53;;
6689;SDS011;3382;51.576;8.076;2023-02-15T02:02:02;14.60;;;11.10;;
6689;SDS011;3382;51.576;8.076;2023-02-15T02:07:00;18.23;;;11.33;;
6689;SDS011;3382;51.576;8.076;2023-02-15T02:09:25;16.03;;;11.27;;
6689;SDS011;3382;51.576;8.076;2023-02-15T02:11:51;16.57;;;11.13;;
6689;SDS011;3382;51.576;8.076;2023-02-15T02:14:19;16.13;;;11.17;;
6689;SDS011;3382;51.576;8.076;2023-02-15T02:23:04;19.00;;;12.37;;
6689;SDS011;3382;51.576;8.076;2023-02-15T02:34:26;15.80;;;10.77;;
6689;SDS011;3382;51.576;8.076;2023-02-15T02:42:15;18.57;;;11.73;;
6689;SDS011;3382;51.576;8.076;2023-02-15T02:44:51;17.63;;;12.37;;
6689;SDS011;3382;51.576;8.076;2023-02-15T02:50:06;17.77;;;11.47;;
6689;SDS011;3382;51.576;8.076;2023-02-15T02:52:41;23.50;;;13.33;;
6689;SDS011;3382;51.576;8.076;2023-02-15T03:00:44;19.57;;;12.90;;
6689;SDS011;3382;51.576;8.076;2023-02-15T03:03:14;16.70;;;12.10;;
6689;SDS011;3382;51.576;8.076;2023-02-15T03:05:53;21.87;;;13.40;;
6689;SDS011;3382;51.576;8.076;2023-02-15T03:08:22;20.23;;;12.27;;
6689;SDS011;3382;51.576;8.076;2023-02-15T03:10:53;20.27;;;13.17;;
6689;SDS011;3382;51.576;8.076;2023-02-15T03:13:22;20.73;;;12.87;;
6689;SDS011;3382;51.576;8.076;2023-02-15T03:15:48;21.07;;;13.87;;
6689;SDS011;3382;51.576;8.076;2023-02-15T03:18:39;20.23;;;12.53;;
6689;SDS011;3382;51.576;8.076;2023-02-15T03:21:09;21.83;;;12.67;;
6689;SDS011;3382;51.576;8.076;2023-02-15T03:23:47;18.63;;;12.30;;
6689;SDS011;3382;51.576;8.076;2023-02-15T03:26:25;18.50;;;12.50;;
6689;SDS011;3382;51.576;8.076;2023-02-15T03:28:53;22.67;;;12.90;;
6689;SDS011;3382;51.576;8.076;2023-02-15T03:31:21;18.50;;;12.47;;
6689;SDS011;3382;51.576;8.076;2023-02-15T03:33:53;20.83;;;12.40;;
6689;SDS011;3382;51.576;8.076;2023-02-15T03:39:26;18.43;;;12.40;;
6689;SDS011;3382;51.576;8.076;2023-02-15T03:42:04;16.47;;;11.80;;
6689;SDS011;3382;51.576;8.076;2023-02-15T03:45:11;19.03;;;12.47;;
6689;SDS011;3382;51.576;8.076;2023-02-15T03:47:33;17.43;;;12.40;;
6689;SDS011;3382;51.576;8.076;2023-02-15T03:52:55;20.53;;;11.90;;
6689;SDS011;3382;51.576;8.076;2023-02-15T03:55:23;21.97;;;11.43;;
6689;SDS011;3382;51.576;8.076;2023-02-15T03:57:49;17.07;;;11.67;;
6689;SDS011;3382;51.576;8.076;2023-02-15T04:00:35;15.10;;;11.33;;
6689;SDS011;3382;51.576;8.076;2023-02-15T04:03:28;17.37;;;11.87;;
6689;SDS011;3382;51.576;8.076;2023-02-15T04:06:16;18.10;;;12.67;;
6689;SDS011;3382;51.576;8.076;2023-02-15T04:08:41;18.80;;;12.23;;
6689;SDS011;3382;51.576;8.076;2023-02-15T04:11:25;21.57;;;12.60;;
6689;SDS011;3382;51.576;8.076;2023-02-15T04:13:51;19.37;;;12.20;;
6689;SDS011;3382;51.576;8.076;2023-02-15T04:16:22;17.80;;;11.60;;
6689;SDS011;3382;51.576;8.076;2023-02-15T04:18:50;18.63;;;11.83;;
6689;SDS011;3382;51.576;8.076;2023-02-15T04:21:34;18.83;;;11.20;;
6689;SDS011;3382;51.576;8.076;2023-02-15T04:24:18;21.20;;;12.27;;
6689;SDS011;3382;51.576;8.076;2023-02-15T04:27:03;17.83;;;12.10;;
6689;SDS011;3382;51.576;8.076;2023-02-15T04:29:29;16.60;;;11.70;;
6689;SDS011;3382;51.576;8.076;2023-02-15T04:31:56;21.73;;;13.33;;
6689;SDS011;3382;51.576;8.076;2023-02-15T04:34:23;23.10;;;16.57;;
6689;SDS011;3382;51.576;8.076;2023-02-15T04:36:49;21.40;;;13.33;;
6689;SDS011;3382;51.576;8.076;2023-02-15T04:39:15;18.67;;;11.73;;
6689;SDS011;3382;51.576;8.076;2023-02-15T04:41:41;18.53;;;12.23;;
6689;SDS011;3382;51.576;8.076;2023-02-15T04:44:07;19.73;;;11.93;;
6689;SDS011;3382;51.576;8.076;2023-02-15T04:46:33;14.80;;;11.30;;
6689;SDS011;3382;51.576;8.076;2023-02-15T04:48:59;22.27;;;12.47;;
6689;SDS011;3382;51.576;8.076;2023-02-15T04:51:24;17.93;;;12.13;;
6689;SDS011;3382;51.576;8.076;2023-02-15T04:53:50;18.67;;;11.10;;
6689;SDS011;3382;51.576;8.076;2023-02-15T04:56:17;18.70;;;11.33;;
6689;SDS011;3382;51.576;8.076;2023-02-15T04:58:43;17.20;;;11.43;;
6689;SDS011;3382;51.576;8.076;2023-02-15T05:01:09;22.50;;;12.37;;
6689;SDS011;3382;51.576;8.076;2023-02-15T05:03:35;16.80;;;11.20;;
6689;SDS011;3382;51.576;8.076;2023-02-15T05:06:01;19.97;;;12.10;;
6689;SDS011;3382;51.576;8.076;2023-02-15T05:08:26;15.33;;;10.80;;
6689;SDS011;3382;51.576;8.076;2023-02-15T05:10:52;20.50;;;11.43;;
6689;SDS011;3382;51.576;8.076;2023-02-15T05:13:18;18.73;;;11.83;;
6689;SDS011;3382;51.576;8.076;2023-02-15T05:15:50;18.40;;;11.53;;
6689;SDS011;3382;51.576;8.076;2023-02-15T05:18:17;16.77;;;11.90;;
6689;SDS011;3382;51.576;8.076;2023-02-15T05:20:44;18.43;;;11.70;;
6689;SDS011;3382;51.576;8.076;2023-02-15T05:23:10;19.93;;;11.77;;
6689;SDS011;3382;51.576;8.076;2023-02-15T05:25:35;15.10;;;10.30;;
6689;SDS011;3382;51.576;8.076;2023-02-15T05:28:20;17.83;;;12.77;;
6689;SDS011;3382;51.576;8.076;2023-02-15T05:30:50;18.23;;;11.90;;
6689;SDS011;3382;51.576;8.076;2023-02-15T05:33:37;21.43;;;11.87;;
6689;SDS011;3382;51.576;8.076;2023-02-15T05:36:03;18.20;;;11.13;;
6689;SDS011;3382;51.576;8.076;2023-02-15T05:38:29;17.43;;;11.70;;
6689;SDS011;3382;51.576;8.076;2023-02-15T05:40:55;17.67;;;11.90;;
6689;SDS011;3382;51.576;8.076;2023-02-15T05:43:22;19.27;;;12.23;;
6689;SDS011;3382;51.576;8.076;2023-02-15T05:45:48;17.80;;;12.03;;
6689;SDS011;3382;51.576;8.076;2023-02-15T05:48:16;19.77;;;11.83;;
6689;SDS011;3382;51.576;8.076;2023-02-15T05:50:42;15.50;;;11.57;;
6689;SDS011;3382;51.576;8.076;2023-02-15T05:53:08;17.73;;;12.27;;
6689;SDS011;3382;51.576;8.076;2023-02-15T05:55:34;18.23;;;12.03;;
6689;SDS011;3382;51.576;8.076;2023-02-15T05:58:01;17.77;;;12.23;;
6689;SDS011;3382;51.576;8.076;2023-02-15T06:00:27;18.07;;;11.53;;
6689;SDS011;3382;51.576;8.076;2023-02-15T06:02:53;16.53;;;11.37;;
6689;SDS011;3382;51.576;8.076;2023-02-15T06:05:18;14.73;;;10.13;;
6689;SDS011;3382;51.576;8.076;2023-02-15T06:07:44;19.03;;;10.73;;
6689;SDS011;3382;51.576;8.076;2023-02-15T06:10:10;15.70;;;10.40;;
6689;SDS011;3382;51.576;8.076;2023-02-15T06:12:36;16.50;;;11.57;;
6689;SDS011;3382;51.576;8.076;2023-02-15T06:15:02;15.17;;;10.70;;
6689;SDS011;3382;51.576;8.076;2023-02-15T06:17:31;18.10;;;10.73;;
6689;SDS011;3382;51.576;8.076;2023-02-15T06:19:57;17.07;;;12.00;;
6689;SDS011;3382;51.576;8.076;2023-02-15T06:22:22;17.33;;;10.30;;
6689;SDS011;3382;51.576;8.076;2023-02-15T06:24:48;19.27;;;11.03;;
6689;SDS011;3382;51.576;8.076;2023-02-15T06:27:13;19.07;;;10.77;;
6689;SDS011;3382;51.576;8.076;2023-02-15T06:29:39;24.73;;;8.03;;
6689;SDS011;3382;51.576;8.076;2023-02-15T06:32:04;19.20;;;11.70;;
6689;SDS011;3382;51.576;8.076;2023-02-15T06:34:30;14.53;;;10.17;;
6689;SDS011;3382;51.576;8.076;2023-02-15T06:36:56;6.43;;;4.00;;
6689;SDS011;3382;51.576;8.076;2023-02-15T06:39:22;12.63;;;7.90;;
6689;SDS011;3382;51.576;8.076;2023-02-15T06:41:47;19.13;;;11.43;;
6689;SDS011;3382;51.576;8.076;2023-02-15T06:44:13;15.97;;;11.00;;
6689;SDS011;3382;51.576;8.076;2023-02-15T06:46:39;17.70;;;11.50;;
6689;SDS011;3382;51.576;8.076;2023-02-15T06:49:04;19.63;;;11.67;;
6689;SDS011;3382;51.576;8.076;2023-02-15T06:51:30;19.03;;;11.60;;
6689;SDS011;3382;51.576;8.076;2023-02-15T06:53:55;17.90;;;11.17;;
6689;SDS011;3382;51.576;8.076;2023-02-15T06:56:21;18.83;;;11.73;;
6689;SDS011;3382;51.576;8.076;2023-02-15T06:58:47;14.37;;;9.57;;
6689;SDS011;3382;51.576;8.076;2023-02-15T07:01:14;17.40;;;12.30;;
6689;SDS011;3382;51.576;8.076;2023-02-15T07:03:40;8.50;;;5.63;;
6689;SDS011;3382;51.576;8.076;2023-02-15T07:06:06;16.97;;;11.30;;
6689;SDS011;3382;51.576;8.076;2023-02-15T07:08:33;20.73;;;12.10;;
6689;SDS011;3382;51.576;8.076;2023-02-15T07:11:00;23.07;;;13.20;;
6689;SDS011;3382;51.576;8.076;2023-02-15T07:13:49;17.63;;;12.03;;
6689;SDS011;3382;51.576;8.076;2023-02-15T07:16:15;21.10;;;13.10;;
6689;SDS011;3382;51.576;8.076;2023-02-15T07:18:41;19.70;;;12.90;;
6689;SDS011;3382;51.576;8.076;2023-02-15T07:21:06;17.80;;;12.70;;
6689;SDS011;3382;51.576;8.076;2023-02-15T07:23:34;20.97;;;13.63;;
6689;SDS011;3382;51.576;8.076;2023-02-15T07:26:03;21.03;;;12.57;;
6689;SDS011;3382;51.576;8.076;2023-02-15T07:28:30;19.47;;;12.73;;
6689;SDS011;3382;51.576;8.076;2023-02-15T07:30:56;22.90;;;13.90;;
6689;SDS011;3382;51.576;8.076;2023-02-15T07:33:22;24.73;;;14.17;;
6689;SDS011;3382;51.576;8.076;2023-02-15T07:35:51;18.83;;;12.70;;
6689;SDS011;3382;51.576;8.076;2023-02-15T07:38:18;19.57;;;13.13;;
6689;SDS011;3382;51.576;8.076;2023-02-15T07:40:44;19.90;;;12.80;;
6689;SDS011;3382;51.576;8.076;2023-02-15T07:43:10;20.13;;;12.73;;
6689;SDS011;3382;51.576;8.076;2023-02-15T07:45:36;18.20;;;12.90;;
6689;SDS011;3382;51.576;8.076;2023-02-15T07:48:03;18.97;;;11.53;;
6689;SDS011;3382;51.576;8.076;2023-02-15T07:50:29;17.13;;;11.43;;
6689;SDS011;3382;51.576;8.076;2023-02-15T07:52:55;18.93;;;11.70;;
6689;SDS011;3382;51.576;8.076;2023-02-15T07:55:21;19.27;;;13.00;;
6689;SDS011;3382;51.576;8.076;2023-02-15T07:57:47;18.57;;;12.03;;
6689;SDS011;3382;51.576;8.076;2023-02-15T08:00:15;20.80;;;12.33;;
6689;SDS011;3382;51.576;8.076;2023-02-15T08:02:47;19.07;;;12.00;;
6689;SDS011;3382;51.576;8.076;2023-02-15T08:05:14;20.13;;;13.83;;
6689;SDS011;3382;51.576;8.076;2023-02-15T08:07:41;20.70;;;14.13;;
6689;SDS011;3382;51.576;8.076;2023-02-15T08:10:07;22.57;;;13.80;;
6689;SDS011;3382;51.576;8.076;2023-02-15T08:12:33;19.97;;;13.13;;
6689;SDS011;3382;51.576;8.076;2023-02-15T08:14:58;19.90;;;12.73;;
6689;SDS011;3382;51.576;8.076;2023-02-15T08:17:24;17.87;;;11.80;;
6689;SDS011;3382;51.576;8.076;2023-02-15T08:19:50;25.70;;;12.27;;
6689;SDS011;3382;51.576;8.076;2023-02-15T08:22:15;18.30;;;12.70;;
6689;SDS011;3382;51.576;8.076;2023-02-15T08:24:41;18.13;;;12.50;;
6689;SDS011;3382;51.576;8.076;2023-02-15T08:27:08;20.40;;;13.33;;
6689;SDS011;3382;51.576;8.076;2023-02-15T08:29:35;22.17;;;12.27;;
6689;SDS011;3382;51.576;8.076;2023-02-15T08:32:03;16.17;;;11.93;;
6689;SDS011;3382;51.576;8.076;2023-02-15T08:34:31;19.27;;;12.87;;
6689;SDS011;3382;51.576;8.076;2023-02-15T08:37:01;18.80;;;12.53;;
6689;SDS011;3382;51.576;8.076;2023-02-15T08:39:27;15.13;;;11.90;;
6689;SDS011;3382;51.576;8.076;2023-02-15T08:41:53;16.40;;;11.90;;
6689;SDS011;3382;51.576;8.076;2023-02-15T08:44:19;16.60;;;11.90;;
6689;SDS011;3382;51.576;8.076;2023-02-15T08:46:46;18.47;;;11.70;;
6689;SDS011;3382;51.576;8.076;2023-02-15T08:49:15;25.03;;;11.73;;
6689;SDS011;3382;51.576;8.076;2023-02-15T08:51:45;18.83;;;11.83;;
6689;SDS011;3382;51.576;8.076;2023-02-15T08:54:15;18.67;;;12.10;;
6689;SDS011;3382;51.576;8.076;2023-02-15T08:56:43;16.90;;;10.73;;
6689;SDS011;3382;51.576;8.076;2023-02-15T08:59:19;17.17;;;11.30;;
6689;SDS011;3382;51.576;8.076;2023-02-15T09:01:46;17.07;;;11.00;;
6689;SDS011;3382;51.576;8.076;2023-02-15T09:04:13;16.83;;;10.90;;
6689;SDS011;3382;51.576;8.076;2023-02-15T09:06:40;14.50;;;9.27;;
6689;SDS011;3382;51.576;8.076;2023-02-15T09:09:09;15.43;;;10.13;;
6689;SDS011;3382;51.576;8.076;2023-02-15T09:11:37;12.93;;;9.67;;
6689;SDS011;3382;51.576;8.076;2023-02-15T09:14:08;15.90;;;10.17;;
6689;SDS011;3382;51.576;8.076;2023-02-15T09:16:38;15.53;;;11.17;;
6689;SDS011;3382;51.576;8.076;2023-02-15T09:19:04;13.27;;;9.93;;
6689;SDS011;3382;51.576;8.076;2023-02-15T09:21:31;16.57;;;10.37;;
6689;SDS011;3382;51.576;8.076;2023-02-15T09:23:59;14.73;;;10.67;;
6689;SDS011;3382;51.576;8.076;2023-02-15T09:26:28;15.67;;;11.03;;
6689;SDS011;3382;51.576;8.076;2023-02-15T09:28:56;17.10;;;10.30;;
6689;SDS011;3382;51.576;8.076;2023-02-15T09:31:27;12.80;;;9.90;;
6689;SDS011;3382;51.576;8.076;2023-02-15T09:33:54;14.43;;;9.97;;
6689;SDS011;3382;51.576;8.076;2023-02-15T09:36:21;14.57;;;10.03;;
6689;SDS011;3382;51.576;8.076;2023-02-15T09:38:56;14.53;;;9.67;;
6689;SDS011;3382;51.576;8.076;2023-02-15T09:41:53;10.97;;;8.70;;
6689;SDS011;3382;51.576;8.076;2023-02-15T09:54:02;14.57;;;9.20;;
6689;SDS011;3382;51.576;8.076;2023-02-15T09:56:45;12.73;;;9.50;;
6689;SDS011;3382;51.576;8.076;2023-02-15T10:02:09;17.63;;;9.93;;
6689;SDS011;3382;51.576;8.076;2023-02-15T10:13:17;17.20;;;10.30;;
6689;SDS011;3382;51.576;8.076;2023-02-15T10:27:15;13.43;;;9.63;;
6689;SDS011;3382;51.576;8.076;2023-02-15T10:29:57;17.13;;;10.00;;
6689;SDS011;3382;51.576;8.076;2023-02-15T10:32:59;12.30;;;9.20;;
6689;SDS011;3382;51.576;8.076;2023-02-15T10:35:37;16.60;;;10.70;;
6689;SDS011;3382;51.576;8.076;2023-02-15T10:38:36;13.10;;;10.03;;
6689;SDS011;3382;51.576;8.076;2023-02-15T10:41:26;17.90;;;10.63;;
6689;SDS011;3382;51.576;8.076;2023-02-15T10:52:25;13.53;;;9.67;;
6689;SDS011;3382;51.576;8.076;2023-02-15T10:55:24;13.90;;;10.27;;
6689;SDS011;3382;51.576;8.076;2023-02-15T11:06:05;16.40;;;9.03;;
6689;SDS011;3382;51.576;8.076;2023-02-15T11:08:37;13.03;;;9.63;;
6689;SDS011;3382;51.576;8.076;2023-02-15T11:11:08;14.07;;;10.47;;
6689;SDS011;3382;51.576;8.076;2023-02-15T11:13:39;13.03;;;9.83;;
6689;SDS011;3382;51.576;8.076;2023-02-15T11:16:21;17.27;;;9.47;;
6689;SDS011;3382;51.576;8.076;2023-02-15T11:18:56;14.77;;;9.60;;
6689;SDS011;3382;51.576;8.076;2023-02-15T11:21:27;15.90;;;9.37;;
6689;SDS011;3382;51.576;8.076;2023-02-15T11:26:39;12.57;;;9.70;;
6689;SDS011;3382;51.576;8.076;2023-02-15T11:31:49;15.73;;;9.93;;
6689;SDS011;3382;51.576;8.076;2023-02-15T11:34:35;15.03;;;10.57;;
6689;SDS011;3382;51.576;8.076;2023-02-15T11:37:06;14.67;;;9.60;;
6689;SDS011;3382;51.576;8.076;2023-02-15T11:39:35;17.10;;;9.63;;
6689;SDS011;3382;51.576;8.076;2023-02-15T11:42:22;18.57;;;10.00;;
6689;SDS011;3382;51.576;8.076;2023-02-15T11:47:43;16.37;;;10.10;;
6689;SDS011;3382;51.576;8.076;2023-02-15T11:50:15;16.07;;;9.70;;
6689;SDS011;3382;51.576;8.076;2023-02-15T11:52:43;18.67;;;10.40;;
6689;SDS011;3382;51.576;8.076;2023-02-15T11:55:12;16.87;;;9.80;;
6689;SDS011;3382;51.576;8.076;2023-02-15T11:57:43;18.03;;;9.50;;
6689;SDS011;3382;51.576;8.076;2023-02-15T12:00:16;15.30;;;9.33;;
6689;SDS011;3382;51.576;8.076;2023-02-15T12:03:00;14.00;;;8.90;;
6689;SDS011;3382;51.576;8.076;2023-02-15T12:05:47;15.53;;;9.93;;
6689;SDS011;3382;51.576;8.076;2023-02-15T12:08:18;14.23;;;10.10;;
6689;SDS011;3382;51.576;8.076;2023-02-15T12:13:22;14.17;;;9.73;;
6689;SDS011;3382;51.576;8.076;2023-02-15T12:15:52;15.80;;;8.57;;
6689;SDS011;3382;51.576;8.076;2023-02-15T12:18:39;15.50;;;9.30;;
6689;SDS011;3382;51.576;8.076;2023-02-15T12:21:12;13.93;;;7.60;;
6689;SDS011;3382;51.576;8.076;2023-02-15T12:23:48;12.60;;;9.40;;
6689;SDS011;3382;51.576;8.076;2023-02-15T12:26:23;14.30;;;9.37;;
6689;SDS011;3382;51.576;8.076;2023-02-15T12:28:54;14.37;;;9.30;;
6689;SDS011;3382;51.576;8.076;2023-02-15T12:31:27;16.17;;;9.70;;
6689;SDS011;3382;51.576;8.076;2023-02-15T12:33:57;11.53;;;9.70;;
6689;SDS011;3382;51.576;8.076;2023-02-15T12:36:32;19.07;;;10.30;;
6689;SDS011;3382;51.576;8.076;2023-02-15T12:41:37;16.90;;;9.47;;
6689;SDS011;3382;51.576;8.076;2023-02-15T12:44:16;13.80;;;10.13;;
6689;SDS011;3382;51.576;8.076;2023-02-15T12:49:24;14.37;;;9.73;;
6689;SDS011;3382;51.576;8.076;2023-02-15T12:51:52;13.83;;;9.10;;
6689;SDS011;3382;51.576;8.076;2023-02-15T12:54:39;14.93;;;10.27;;
6689;SDS011;3382;51.576;8.076;2023-02-15T12:59:52;16.10;;;10.07;;
6689;SDS011;3382;51.576;8.076;2023-02-15T13:02:20;15.03;;;9.93;;
6689;SDS011;3382;51.576;8.076;2023-02-15T13:04:51;13.90;;;10.00;;
6689;SDS011;3382;51.576;8.076;2023-02-15T13:07:18;13.80;;;9.67;;
6689;SDS011;3382;51.576;8.076;2023-02-15T13:09:45;15.07;;;10.03;;
6689;SDS011;3382;51.576;8.076;2023-02-15T13:12:20;12.10;;;9.17;;
6689;SDS011;3382;51.576;8.076;2023-02-15T13:14:56;16.53;;;9.60;;
6689;SDS011;3382;51.576;8.076;2023-02-15T13:17:32;11.53;;;9.10;;
6689;SDS011;3382;51.576;8.076;2023-02-15T13:22:47;14.97;;;10.03;;
6689;SDS011;3382;51.576;8.076;2023-02-15T13:25:22;16.07;;;10.07;;
6689;SDS011;3382;51.576;8.076;2023-02-15T13:27:51;14.40;;;9.77;;
6689;SDS011;3382;51.576;8.076;2023-02-15T13:30:24;14.97;;;9.87;;
6689;SDS011;3382;51.576;8.076;2023-02-15T13:41:46;14.87;;;10.47;;
6689;SDS011;3382;51.576;8.076;2023-02-15T13:47:08;15.53;;;10.60;;
6689;SDS011;3382;51.576;8.076;2023-02-15T13:52:43;17.60;;;10.50;;
6689;SDS011;3382;51.576;8.076;2023-02-15T14:00:38;13.87;;;10.07;;
6689;SDS011;3382;51.576;8.076;2023-02-15T14:06:11;15.80;;;10.60;;
6689;SDS011;3382;51.576;8.076;2023-02-15T14:11:52;15.10;;;10.10;;
6689;SDS011;3382;51.576;8.076;2023-02-15T14:17:20;14.80;;;10.63;;
6689;SDS011;3382;51.576;8.076;2023-02-15T14:20:32;13.47;;;9.47;;
6689;SDS011;3382;51.576;8.076;2023-02-15T14:23:21;16.10;;;10.03;;
6689;SDS011;3382;51.576;8.076;2023-02-15T14:28:56;15.90;;;10.63;;
6689;SDS011;3382;51.576;8.076;2023-02-15T14:31:26;15.43;;;10.37;;
6689;SDS011;3382;51.576;8.076;2023-02-15T14:33:58;17.00;;;10.80;;
6689;SDS011;3382;51.576;8.076;2023-02-15T14:36:24;27.93;;;10.83;;
6689;SDS011;3382;51.576;8.076;2023-02-15T14:41:23;16.57;;;10.37;;
6689;SDS011;3382;51.576;8.076;2023-02-15T14:44:34;18.07;;;10.80;;
6689;SDS011;3382;51.576;8.076;2023-02-15T14:47:11;13.90;;;10.43;;
6689;SDS011;3382;51.576;8.076;2023-02-15T14:49:46;15.57;;;9.70;;
6689;SDS011;3382;51.576;8.076;2023-02-15T14:52:11;20.07;;;10.60;;
6689;SDS011;3382;51.576;8.076;2023-02-15T15:02:09;15.20;;;10.00;;
6689;SDS011;3382;51.576;8.076;2023-02-15T15:04:55;16.03;;;10.50;;
6689;SDS011;3382;51.576;8.076;2023-02-15T15:07:49;5.33;;;3.80;;
6689;SDS011;3382;51.576;8.076;2023-02-15T15:12:46;6.77;;;4.93;;
6689;SDS011;3382;51.576;8.076;2023-02-15T15:18:08;8.43;;;6.70;;
6689;SDS011;3382;51.576;8.076;2023-02-15T15:20:39;12.20;;;9.03;;
6689;SDS011;3382;51.576;8.076;2023-02-15T15:33:46;18.37;;;9.57;;
6689;SDS011;3382;51.576;8.076;2023-02-15T15:49:57;14.73;;;9.80;;
6689;SDS011;3382;51.576;8.076;2023-02-15T15:52:24;15.67;;;9.70;;
6689;SDS011;3382;51.576;8.076;2023-02-15T15:54:56;15.13;;;9.30;;
6689;SDS011;3382;51.576;8.076;2023-02-15T15:57:29;17.20;;;9.80;;
6689;SDS011;3382;51.576;8.076;2023-02-15T15:59:58;14.97;;;9.33;;
6689;SDS011;3382;51.576;8.076;2023-02-15T16:02:24;24.63;;;10.30;;
6689;SDS011;3382;51.576;8.076;2023-02-15T16:04:51;19.60;;;10.80;;
6689;SDS011;3382;51.576;8.076;2023-02-15T16:12:28;18.17;;;9.83;;
6689;SDS011;3382;51.576;8.076;2023-02-15T16:14:56;15.57;;;10.47;;
6689;SDS011;3382;51.576;8.076;2023-02-15T16:17:24;15.77;;;9.67;;
6689;SDS011;3382;51.576;8.076;2023-02-15T16:19:52;15.07;;;9.03;;
6689;SDS011;3382;51.576;8.076;2023-02-15T16:22:23;23.00;;;10.70;;
6689;SDS011;3382;51.576;8.076;2023-02-15T16:27:38;26.87;;;10.70;;
6689;SDS011;3382;51.576;8.076;2023-02-15T16:33:02;26.07;;;10.47;;
6689;SDS011;3382;51.576;8.076;2023-02-15T16:35:30;24.97;;;12.37;;
6689;SDS011;3382;51.576;8.076;2023-02-15T16:37:56;29.27;;;12.23;;
6689;SDS011;3382;51.576;8.076;2023-02-15T16:40:26;24.87;;;10.77;;
6689;SDS011;3382;51.576;8.076;2023-02-15T16:43:03;19.67;;;11.97;;
6689;SDS011;3382;51.576;8.076;2023-02-15T16:45:32;17.70;;;11.27;;
6689;SDS011;3382;51.576;8.076;2023-02-15T16:48:01;42.33;;;14.03;;
6689;SDS011;3382;51.576;8.076;2023-02-15T16:50:34;28.00;;;12.23;;
6689;SDS011;3382;51.576;8.076;2023-02-15T16:53:02;21.40;;;11.60;;
6689;SDS011;3382;51.576;8.076;2023-02-15T16:55:35;20.10;;;11.47;;
6689;SDS011;3382;51.576;8.076;2023-02-15T16:58:04;20.10;;;12.80;;
6689;SDS011;3382;51.576;8.076;2023-02-15T17:00:36;36.10;;;14.03;;
6689;SDS011;3382;51.576;8.076;2023-02-15T17:03:04;29.10;;;13.37;;
6689;SDS011;3382;51.576;8.076;2023-02-15T17:10:44;20.27;;;12.73;;
6689;SDS011;3382;51.576;8.076;2023-02-15T17:13:13;23.97;;;13.53;;
6689;SDS011;3382;51.576;8.076;2023-02-15T17:18:32;27.73;;;14.17;;
6689;SDS011;3382;51.576;8.076;2023-02-15T17:21:24;30.40;;;15.13;;
6689;SDS011;3382;51.576;8.076;2023-02-15T17:24:01;33.97;;;14.63;;
6689;SDS011;3382;51.576;8.076;2023-02-15T17:26:32;22.70;;;14.77;;
6689;SDS011;3382;51.576;8.076;2023-02-15T17:29:11;23.40;;;14.17;;
6689;SDS011;3382;51.576;8.076;2023-02-15T17:31:37;27.47;;;14.13;;
6689;SDS011;3382;51.576;8.076;2023-02-15T17:34:03;25.30;;;13.60;;
6689;SDS011;3382;51.576;8.076;2023-02-15T17:36:30;22.73;;;13.10;;
6689;SDS011;3382;51.576;8.076;2023-02-15T17:41:22;19.03;;;11.57;;
6689;SDS011;3382;51.576;8.076;2023-02-15T17:43:48;18.37;;;10.60;;
6689;SDS011;3382;51.576;8.076;2023-02-15T17:46:14;16.67;;;10.83;;
6689;SDS011;3382;51.576;8.076;2023-02-15T17:48:43;20.07;;;7.80;;
6689;SDS011;3382;51.576;8.076;2023-02-15T17:51:12;29.10;;;10.60;;
6689;SDS011;3382;51.576;8.076;2023-02-15T17:53:38;16.90;;;10.93;;
6689;SDS011;3382;51.576;8.076;2023-02-15T17:56:04;17.60;;;10.27;;
6689;SDS011;3382;51.576;8.076;2023-02-15T17:58:35;21.93;;;9.80;;
6689;SDS011;3382;51.576;8.076;2023-02-15T18:01:02;21.27;;;10.40;;
6689;SDS011;3382;51.576;8.076;2023-02-15T18:03:51;22.20;;;9.53;;
6689;SDS011;3382;51.576;8.076;2023-02-15T18:06:37;17.23;;;9.47;;
6689;SDS011;3382;51.576;8.076;2023-02-15T18:09:23;13.13;;;8.33;;
6689;SDS011;3382;51.576;8.076;2023-02-15T18:12:19;15.07;;;8.63;;
6689;SDS011;3382;51.576;8.076;2023-02-15T18:14:47;18.87;;;11.70;;
6689;SDS011;3382;51.576;8.076;2023-02-15T18:17:13;15.57;;;9.00;;
6689;SDS011;3382;51.576;8.076;2023-02-15T18:19:40;15.20;;;9.03;;
6689;SDS011;3382;51.576;8.076;2023-02-15T18:22:11;15.03;;;9.60;;
6689;SDS011;3382;51.576;8.076;2023-02-15T18:24:38;15.67;;;9.43;;
6689;SDS011;3382;51.576;8.076;2023-02-15T18:27:04;15.30;;;9.63;;
6689;SDS011;3382;51.576;8.076;2023-02-15T18:29:30;16.13;;;9.50;;
6689;SDS011;3382;51.576;8.076;2023-02-15T18:31:55;12.97;;;7.93;;
6689;SDS011;3382;51.576;8.076;2023-02-15T18:34:25;15.83;;;8.90;;